Time;durP1;ratioP1;P1;durP2;ratioP2;P2;SDS_P1;SDS_P2;PMS_P1;PMS_P2;Temp;Humidity;BMP_temperature;BMP_pressure;BME280_temperature;BME280_humidity;BME280_pressure;Samples;Min_cycle;Max_cycle;Signal;HPM_P1;HPM_P2
2023/10/21 00:01:57;;;;;;;1.77;1.40;;;;;;;9.21;100.00;95835.34;6108917;19;20018;-75
2023/10/21 00:03:57;;;;;;;2.53;1.42;;;;;;;9.23;100.00;95828.19;6108040;19;20070;-75
2023/10/21 00:05:58;;;;;;;1.48;1.23;;;;;;;9.20;100.00;95836.56;6106972;19;20350;-74
2023/10/21 00:07:58;;;;;;;4.28;1.70;;;;;;;9.19;100.00;95841.31;6106594;19;20462;-75
2023/10/21 00:09:59;;;;;;;1.90;1.42;;;;;;;9.20;100.00;95842.84;6108110;19;20006;-74
2023/10/21 00:11:59;;;;;;;1.75;1.58;;;;;;;9.24;100.00;95849.03;6108312;19;20014;-75
2023/10/21 00:13:59;;;;;;;2.10;1.90;;;;;;;9.32;100.00;95843.34;6107724;19;20011;-74
2023/10/21 00:16:00;;;;;;;2.50;1.60;;;;;;;9.32;100.00;95837.81;6107131;19;20463;-75
2023/10/21 00:18:01;;;;;;;2.67;1.88;;;;;;;9.33;100.00;95837.38;6107394;19;20471;-75
2023/10/21 00:20:03;;;;;;;2.17;1.70;;;;;;;9.36;100.00;95841.28;6106494;19;20035;-74
2023/10/21 00:22:05;;;;;;;1.50;1.40;;;;;;;9.38;100.00;95853.44;6108208;19;20002;-74
2023/10/21 00:24:06;;;;;;;3.13;2.30;;;;;;;9.44;100.00;95859.22;6107085;19;20018;-75
2023/10/21 00:26:06;;;;;;;3.45;1.92;;;;;;;9.44;100.00;95854.47;6107732;19;20079;-75
2023/10/21 00:28:07;;;;;;;3.58;2.10;;;;;;;9.47;100.00;95853.59;6106518;19;20014;-75
2023/10/21 00:30:07;;;;;;;3.50;2.40;;;;;;;9.47;100.00;95861.84;6108075;19;19998;-74
2023/10/21 00:32:08;;;;;;;3.13;2.22;;;;;;;9.48;100.00;95862.63;6107340;19;20024;-74
2023/10/21 00:34:09;;;;;;;4.40;3.25;;;;;;;9.49;100.00;95864.19;6106419;19;20002;-75
2023/10/21 00:36:09;;;;;;;4.22;2.30;;;;;;;9.49;100.00;95862.19;6107834;19;21003;-75
2023/10/21 00:38:10;;;;;;;2.97;2.40;;;;;;;9.54;100.00;95866.44;6107193;19;20005;-75
2023/10/21 00:40:11;;;;;;;4.85;2.78;;;;;;;9.53;100.00;95860.13;6107503;19;20030;-74
2023/10/21 00:42:11;;;;;;;6.15;3.40;;;;;;;9.60;100.00;95866.66;6106889;19;19995;-75
2023/10/21 00:44:11;;;;;;;6.35;2.88;;;;;;;9.65;100.00;95869.66;6107227;19;20023;-75
2023/10/21 00:46:19;;;;;;;5.45;3.13;;;;;;;9.68;100.00;95874.34;6106590;19;20421;-75
2023/10/21 00:48:20;;;;;;;5.43;3.33;;;;;;;9.72;100.00;95877.75;6104329;19;20595;-75
2023/10/21 00:50:21;;;;;;;3.88;2.85;;;;;;;9.73;100.00;95882.06;6098839;19;19999;-75
2023/10/21 00:52:21;;;;;;;4.15;2.80;;;;;;;9.70;100.00;95876.66;6100469;19;20031;-75
2023/10/21 00:54:24;;;;;;;4.90;2.75;;;;;;;9.76;100.00;95883.19;6097265;19;20010;-75
2023/10/21 00:56:25;;;;;;;3.67;2.15;;;;;;;9.78;100.00;95880.78;6098830;19;20013;-75
2023/10/21 00:58:27;;;;;;;4.15;2.60;;;;;;;9.80;100.00;95886.63;6098730;19;20454;-75
2023/10/21 01:00:27;;;;;;;;;;;;;;;9.88;100.00;95887.22;6100012;19;20427;-75
2023/10/21 01:02:28;;;;;;;3.15;1.48;;;;;;;9.91;100.00;95883.56;6099496;19;20531;-75
2023/10/21 01:04:28;;;;;;;2.92;2.00;;;;;;;9.96;100.00;95889.34;6097705;19;20356;-75
2023/10/21 01:06:29;;;;;;;2.00;1.70;;;;;;;10.01;100.00;95888.03;6098521;19;20014;-75
2023/10/21 01:08:29;;;;;;;2.47;1.63;;;;;;;10.04;100.00;95890.72;6099898;19;20006;-74
2023/10/21 01:10:30;;;;;;;2.67;1.90;;;;;;;10.06;100.00;95890.25;6098962;19;20006;-75
2023/10/21 01:12:30;;;;;;;2.63;1.58;;;;;;;10.18;100.00;95900.59;6098588;19;20673;-75
2023/10/21 01:14:30;;;;;;;3.60;1.67;;;;;;;10.18;100.00;95894.28;6099695;19;20010;-75
2023/10/21 01:16:31;;;;;;;1.63;1.48;;;;;;;10.18;100.00;95888.75;6098765;19;20017;-74
2023/10/21 01:18:38;;;;;;;2.22;1.70;;;;;;;10.13;100.00;95890.84;6097632;19;20478;-75
2023/10/21 01:20:41;;;;;;;2.78;1.75;;;;;;;10.12;100.00;95903.13;6098800;19;20348;-75
2023/10/21 01:22:42;;;;;;;2.50;1.60;;;;;;;10.10;100.00;95911.06;6098223;19;20017;-75
2023/10/21 01:24:42;;;;;;;3.42;1.45;;;;;;;10.12;100.00;95913.38;6098726;19;20006;-75
2023/10/21 01:26:43;;;;;;;1.70;1.52;;;;;;;10.13;100.00;95899.13;6097830;19;19999;-75
2023/10/21 01:28:43;;;;;;;2.60;1.40;;;;;;;10.17;100.00;95901.00;6098951;19;20469;-75
2023/10/21 01:30:43;;;;;;;3.13;1.80;;;;;;;10.20;100.00;95908.44;6099382;19;20015;-74
2023/10/21 01:32:44;;;;;;;2.40;1.40;;;;;;;10.22;100.00;95895.75;6096083;19;20015;-75
2023/10/21 01:34:44;;;;;;;4.07;1.65;;;;;;;10.25;100.00;95900.41;6099113;19;20052;-74
2023/10/21 01:36:46;;;;;;;5.85;1.60;;;;;;;10.23;100.00;95885.47;6098300;19;20328;-74
2023/10/21 01:38:46;;;;;;;2.85;1.52;;;;;;;10.24;100.00;95893.31;6097828;19;20035;-75
2023/10/21 01:40:47;;;;;;;3.20;1.92;;;;;;;10.29;100.00;95889.25;6098074;19;20580;-75
2023/10/21 01:42:47;;;;;;;1.77;1.67;;;;;;;10.34;100.00;95891.47;6097176;19;20002;-74
2023/10/21 01:44:48;;;;;;;1.73;1.55;;;;;;;10.33;100.00;95884.41;6098637;19;20081;-74
2023/10/21 01:46:48;;;;;;;1.75;1.60;;;;;;;10.31;100.00;95884.84;6098489;19;20522;-75
2023/10/21 01:48:50;;;;;;;2.70;2.00;;;;;;;10.30;100.00;95894.34;6099092;19;20510;-74
2023/10/21 01:50:59;;;;;;;2.60;1.83;;;;;;;10.28;100.00;95888.50;6106557;19;19998;-75
2023/10/21 01:52:59;;;;;;;2.50;2.10;;;;;;;10.30;100.00;95888.81;6106226;19;20021;-75
2023/10/21 01:54:59;;;;;;;2.50;2.10;;;;;;;10.29;100.00;95892.03;6107176;19;20399;-74
2023/10/21 01:57:00;;;;;;;2.50;1.85;;;;;;;10.31;100.00;95886.81;6106031;19;20407;-75
2023/10/21 01:59:00;;;;;;;2.53;2.15;;;;;;;10.30;100.00;95899.88;6105904;19;20015;-75
2023/10/21 02:01:07;;;;;;;5.30;2.30;;;;;;;10.25;100.00;95897.63;6106234;19;20015;-74
2023/10/21 02:03:08;;;;;;;3.65;2.05;;;;;;;10.22;100.00;95898.53;6100545;19;20017;-75
2023/10/21 02:05:08;;;;;;;8.55;2.45;;;;;;;10.25;100.00;95885.81;6105641;19;20022;-75
2023/10/21 02:07:09;;;;;;;2.53;2.00;;;;;;;10.27;100.00;95883.41;6109653;19;20037;-75
2023/10/21 02:09:10;;;;;;;3.95;2.05;;;;;;;10.31;100.00;95893.13;6112280;19;20298;-75
2023/10/21 02:11:10;;;;;;;2.58;2.10;;;;;;;10.26;100.00;95909.47;6112089;19;20010;-74
2023/10/21 02:13:10;;;;;;;1.90;1.80;;;;;;;10.26;100.00;95918.56;6110523;19;20023;-75
2023/10/21 02:15:16;;;;;;;2.17;1.95;;;;;;;10.22;100.00;95912.34;6112626;19;20011;-75
2023/10/21 02:17:17;;;;;;;2.33;2.13;;;;;;;10.25;100.00;95910.69;6112224;19;20007;-74
2023/10/21 02:19:17;;;;;;;2.60;2.15;;;;;;;10.26;100.00;95926.03;6110587;19;20353;-75
2023/10/21 02:21:17;;;;;;;2.60;2.40;;;;;;;10.30;100.00;95926.72;6110467;19;20538;-75
2023/10/21 02:23:18;;;;;;;3.47;2.45;;;;;;;10.28;100.00;95935.47;6111768;19;20128;-75
2023/10/21 02:25:19;;;;;;;2.42;2.20;;;;;;;10.29;100.00;95927.94;6111984;19;20051;-75
2023/10/21 02:27:20;;;;;;;2.85;2.20;;;;;;;10.29;100.00;95930.72;6111040;19;20009;-75
2023/10/21 02:29:20;;;;;;;2.90;2.53;;;;;;;10.29;100.00;95928.72;6110992;19;20490;-75
2023/10/21 02:31:20;;;;;;;4.97;2.55;;;;;;;10.30;100.00;95935.78;6111066;19;20023;-75
2023/10/21 02:33:22;;;;;;;3.55;2.63;;;;;;;10.30;100.00;95938.56;6110275;19;20014;-75
2023/10/21 02:35:22;;;;;;;3.00;2.42;;;;;;;10.30;100.00;95941.31;6112195;19;20466;-75
2023/10/21 02:37:23;;;;;;;2.65;2.38;;;;;;;10.25;100.00;95933.56;6111287;19;20073;-75
2023/10/21 02:39:23;;;;;;;4.97;2.30;;;;;;;10.23;100.00;95949.03;6110630;19;20015;-75
2023/10/21 02:41:23;;;;;;;3.05;2.30;;;;;;;10.21;100.00;95948.69;6110884;19;20358;-75
2023/10/21 02:43:24;;;;;;;4.65;2.30;;;;;;;10.20;100.00;95947.13;6109873;19;20506;-75
2023/10/21 02:45:24;;;;;;;2.97;2.13;;;;;;;10.17;100.00;95948.75;6110990;19;20006;-75
2023/10/21 02:47:24;;;;;;;3.10;1.92;;;;;;;10.17;100.00;95953.50;6111460;19;20349;-75
2023/10/21 02:49:25;;;;;;;2.17;1.80;;;;;;;10.15;100.00;95951.19;6110519;19;20014;-75
2023/10/21 02:51:25;;;;;;;17.05;4.25;;;;;;;10.12;100.00;95952.06;6112009;19;20019;-74
2023/10/21 02:53:26;;;;;;;2.70;1.80;;;;;;;10.15;100.00;95956.72;6110221;19;20344;-75
2023/10/21 02:55:26;;;;;;;1.92;1.70;;;;;;;10.26;100.00;95948.94;6110935;19;20022;-75
2023/10/21 02:57:26;;;;;;;1.77;1.60;;;;;;;10.28;100.00;95954.03;6112475;19;20332;-75
2023/10/21 02:59:27;;;;;;;2.53;1.80;;;;;;;10.36;100.00;95945.09;6110142;19;20018;-75
2023/10/21 03:01:27;;;;;;;3.67;1.88;;;;;;;10.43;100.00;95949.66;6110237;19;20025;-75
2023/10/21 03:03:27;;;;;;;1.90;1.50;;;;;;;10.44;100.00;95956.75;6110525;19;19998;-75
2023/10/21 03:05:28;;;;;;;1.50;1.25;;;;;;;10.51;100.00;95956.53;6110154;19;20038;-75
2023/10/21 03:07:28;;;;;;;2.00;1.30;;;;;;;10.55;100.00;95954.44;6110777;19;20029;-74
2023/10/21 03:09:28;;;;;;;1.23;0.93;;;;;;;10.63;100.00;95943.94;6110074;19;20036;-75
2023/10/21 03:11:29;;;;;;;1.55;1.30;;;;;;;10.71;100.00;95947.28;6110003;19;20519;-75
2023/10/21 03:13:30;;;;;;;1.58;1.35;;;;;;;10.77;100.00;95949.06;6107196;19;20462;-75
2023/10/21 03:15:33;;;;;;;1.40;1.10;;;;;;;10.83;100.00;95961.13;6109934;19;20007;-75
2023/10/21 03:17:33;;;;;;;3.08;0.90;;;;;;;10.84;100.00;95959.94;6109967;19;20006;-75
2023/10/21 03:19:33;;;;;;;1.00;0.90;;;;;;;10.93;100.00;95967.56;6107839;19;19998;-75
2023/10/21 03:21:34;;;;;;;1.20;1.10;;;;;;;10.93;100.00;95962.81;6108925;19;20002;-75
2023/10/21 03:23:35;;;;;;;2.65;1.15;;;;;;;10.95;100.00;95965.91;6107799;19;20003;-75
2023/10/21 03:25:35;;;;;;;1.20;1.10;;;;;;;10.93;100.00;95970.34;6109719;19;20002;-75
2023/10/21 03:27:36;;;;;;;2.75;1.10;;;;;;;10.97;100.00;95971.00;6109142;19;20002;-75
2023/10/21 03:29:36;;;;;;;1.42;1.10;;;;;;;10.99;100.00;95982.38;6108283;19;20022;-75
2023/10/21 03:31:36;;;;;;;1.15;0.90;;;;;;;11.03;100.00;95957.41;6108666;19;20345;-75
2023/10/21 03:33:37;;;;;;;1.13;1.00;;;;;;;11.01;100.00;95966.16;6107968;19;19998;-75
2023/10/21 03:35:37;;;;;;;1.02;0.90;;;;;;;10.96;100.00;95964.69;6107549;19;20003;-75
2023/10/21 03:37:37;;;;;;;1.95;0.82;;;;;;;11.01;100.00;95965.38;6108139;19;20002;-75
2023/10/21 03:39:38;;;;;;;1.67;1.15;;;;;;;11.01;100.00;95971.69;6108799;19;20047;-75
2023/10/21 03:41:38;;;;;;;2.00;1.05;;;;;;;11.03;100.00;95971.22;6107796;19;20003;-75
2023/10/21 03:43:38;;;;;;;1.88;1.10;;;;;;;11.01;100.00;95954.31;6106699;19;20006;-75
2023/10/21 03:45:39;;;;;;;1.77;1.05;;;;;;;11.05;100.00;95966.78;6109264;19;20394;-75
2023/10/21 03:47:39;;;;;;;1.42;1.00;;;;;;;11.08;100.00;95968.66;6108431;19;20007;-75
2023/10/21 03:49:40;;;;;;;3.72;1.40;;;;;;;11.14;100.00;95974.44;6107967;19;20019;-75
2023/10/21 03:51:40;;;;;;;0.80;0.80;;;;;;;11.22;100.00;95965.47;6108238;19;20332;-75
2023/10/21 03:53:42;;;;;;;1.38;0.80;;;;;;;11.23;100.00;95985.63;6106821;19;20388;-75
2023/10/21 03:55:43;;;;;;;1.83;1.13;;;;;;;11.19;100.00;95977.44;6107913;19;20002;-75
2023/10/21 03:57:43;;;;;;;0.98;0.90;;;;;;;11.22;100.00;95979.31;6108394;19;20013;-75
2023/10/21 03:59:44;;;;;;;1.23;0.98;;;;;;;11.31;100.00;95970.34;6108095;19;20454;-75
2023/10/21 04:01:44;;;;;;;1.27;1.00;;;;;;;11.40;100.00;95967.66;6107802;19;20630;-75
2023/10/21 04:03:44;;;;;;;1.00;0.90;;;;;;;11.37;100.00;95974.09;6106758;19;20032;-75
2023/10/21 04:05:45;;;;;;;1.45;0.93;;;;;;;11.40;100.00;95975.19;6108038;19;20030;-75
2023/10/21 04:07:45;;;;;;;2.10;1.38;;;;;;;11.42;100.00;95970.00;6107907;19;20026;-74
2023/10/21 04:09:46;;;;;;;2.65;1.67;;;;;;;11.46;100.00;95976.97;6107879;19;20097;-74
2023/10/21 04:11:46;;;;;;;1.92;1.30;;;;;;;11.46;100.00;95984.50;6107640;19;20010;-75
2023/10/21 04:13:46;;;;;;;2.65;1.00;;;;;;;11.56;100.00;95975.09;6105574;19;20008;-75
2023/10/21 04:15:47;;;;;;;2.20;1.20;;;;;;;11.57;100.00;95982.16;6107948;19;20002;-75
2023/10/21 04:17:47;;;;;;;1.92;1.13;;;;;;;11.51;100.00;95970.13;6107876;19;20025;-75
2023/10/21 04:19:48;;;;;;;1.45;1.00;;;;;;;11.56;100.00;95979.84;6107883;19;20007;-75
2023/10/21 04:21:48;;;;;;;0.77;0.75;;;;;;;11.60;100.00;95972.97;6106744;19;20034;-75
2023/10/21 04:23:48;;;;;;;1.10;0.82;;;;;;;11.64;100.00;95981.16;6106162;19;20097;-75
2023/10/21 04:25:49;;;;;;;1.23;0.90;;;;;;;11.71;100.00;95980.94;6108438;19;20505;-75
2023/10/21 04:27:49;;;;;;;1.20;0.90;;;;;;;11.74;100.00;95980.81;6106640;19;20007;-75
2023/10/21 04:29:49;;;;;;;1.50;0.80;;;;;;;11.74;100.00;95980.03;6105777;19;20390;-75
2023/10/21 04:31:50;;;;;;;1.23;0.70;;;;;;;11.76;100.00;95981.16;6107054;19;20026;-75
2023/10/21 04:33:50;;;;;;;4.95;1.70;;;;;;;11.76;100.00;95974.84;6106422;19;20010;-75
2023/10/21 04:35:50;;;;;;;1.63;0.82;;;;;;;11.78;100.00;95981.47;6107629;19;19998;-75
2023/10/21 04:37:51;;;;;;;0.60;0.60;;;;;;;11.74;100.00;95989.13;6107917;19;20015;-75
2023/10/21 04:39:52;;;;;;;1.35;0.80;;;;;;;11.70;100.00;95988.47;6106520;19;20010;-75
2023/10/21 04:41:53;;;;;;;0.80;0.80;;;;;;;11.78;100.00;95992.56;6106886;19;20087;-75
2023/10/21 04:43:53;;;;;;;0.95;0.70;;;;;;;11.83;100.00;95988.47;6106496;19;20458;-75
2023/10/21 04:45:54;;;;;;;1.40;0.70;;;;;;;11.88;100.00;95981.59;6107348;19;20003;-75
2023/10/21 04:47:54;;;;;;;1.30;0.65;;;;;;;11.95;100.00;95979.38;6107053;19;20396;-75
2023/10/21 04:49:55;;;;;;;0.68;0.60;;;;;;;11.87;100.00;95978.06;6094757;19;20058;-75
2023/10/21 04:51:56;;;;;;;2.83;0.70;;;;;;;11.84;100.00;95967.88;6106849;19;20003;-75
2023/10/21 04:53:57;;;;;;;0.65;0.60;;;;;;;11.90;100.00;95974.38;6105206;19;20325;-75
2023/10/21 04:55:57;;;;;;;0.80;0.63;;;;;;;11.91;100.00;95984.25;6106563;19;20022;-75
2023/10/21 04:57:57;;;;;;;0.75;0.65;;;;;;;11.85;100.00;95994.34;6104837;19;19998;-75
2023/10/21 04:59:59;;;;;;;0.57;0.57;;;;;;;11.81;100.00;95988.16;6106802;19;20044;-75
2023/10/21 05:01:59;;;;;;;0.70;0.63;;;;;;;11.84;100.00;95997.56;6106260;19;20013;-75
2023/10/21 05:04:00;;;;;;;1.30;0.60;;;;;;;11.86;100.00;95997.91;6103496;19;20820;-75
2023/10/21 05:06:00;;;;;;;0.57;0.50;;;;;;;11.98;100.00;96003.41;6104166;19;20011;-75
2023/10/21 05:08:02;;;;;;;1.02;0.70;;;;;;;12.08;100.00;96002.28;6105785;19;20048;-75
2023/10/21 05:10:04;;;;;;;1.75;0.57;;;;;;;12.09;100.00;96009.38;6106076;19;20010;-75
2023/10/21 05:12:04;;;;;;;0.60;0.60;;;;;;;12.08;100.00;96009.81;6105346;19;20010;-75
2023/10/21 05:14:05;;;;;;;0.95;0.50;;;;;;;12.15;100.00;96017.09;6105204;19;20016;-75
2023/10/21 05:16:05;;;;;;;1.95;0.60;;;;;;;12.19;100.00;96018.53;6104729;19;20022;-75
2023/10/21 05:18:05;;;;;;;0.82;0.60;;;;;;;12.14;100.00;96024.66;6105401;19;20044;-75
2023/10/21 05:20:07;;;;;;;0.95;0.40;;;;;;;12.13;100.00;96011.25;6104602;19;20022;-75
2023/10/21 05:22:07;;;;;;;0.43;0.43;;;;;;;12.16;100.00;96024.97;6105083;19;20007;-75
2023/10/21 05:24:08;;;;;;;0.47;0.47;;;;;;;12.09;100.00;96026.00;6104008;19;20032;-75
2023/10/21 05:26:08;;;;;;;0.40;0.40;;;;;;;12.16;100.00;96024.97;6104415;19;20007;-75
2023/10/21 05:28:09;;;;;;;0.50;0.50;;;;;;;12.17;100.00;96031.31;6104908;19;20003;-75
2023/10/21 05:30:10;;;;;;;1.55;0.45;;;;;;;12.24;100.00;96044.91;6105670;19;20015;-75
2023/10/21 05:32:10;;;;;;;18.83;1.75;;;;;;;12.34;100.00;96036.25;6101473;19;20013;-75
2023/10/21 05:34:17;;;;;;;0.38;0.38;;;;;;;12.32;100.00;96041.44;6103851;19;20475;-75
2023/10/21 05:36:18;;;;;;;0.65;0.50;;;;;;;12.41;100.00;96048.28;6106361;19;20011;-75
2023/10/21 05:38:18;;;;;;;1.55;0.60;;;;;;;12.43;100.00;96046.63;6105774;19;20003;-75
2023/10/21 05:40:18;;;;;;;0.30;0.30;;;;;;;12.48;100.00;96053.59;6104462;19;20003;-75
2023/10/21 05:42:19;;;;;;;1.23;0.40;;;;;;;12.40;100.00;96043.97;6108609;19;20341;-75
2023/10/21 05:44:19;;;;;;;0.50;0.40;;;;;;;12.39;100.00;96054.28;6111131;19;20054;-75
2023/10/21 05:46:19;;;;;;;1.70;0.40;;;;;;;12.31;100.00;96025.25;6111773;19;19998;-75
2023/10/21 05:48:20;;;;;;;2.17;0.60;;;;;;;12.33;100.00;96048.56;6108917;19;20348;-75
2023/10/21 05:50:21;;;;;;;0.95;0.40;;;;;;;12.37;100.00;96073.38;6103991;19;20273;-75
2023/10/21 05:52:21;;;;;;;0.77;0.30;;;;;;;12.40;100.00;96074.47;6103292;19;20026;-75
2023/10/21 05:54:21;;;;;;;2.28;0.50;;;;;;;12.42;100.00;96075.59;6102359;19;20010;-75
2023/10/21 05:56:22;;;;;;;0.40;0.38;;;;;;;12.32;100.00;96074.72;6104060;19;20078;-75
2023/10/21 05:58:23;;;;;;;0.90;0.50;;;;;;;12.35;100.00;96098.78;6103423;19;20035;-75
2023/10/21 06:00:24;;;;;;;0.40;0.40;;;;;;;12.35;100.00;96093.25;6101926;19;20006;-75
2023/10/21 06:02:24;;;;;;;0.40;0.40;;;;;;;12.46;100.00;96089.31;6103196;19;20375;-75
2023/10/21 06:04:24;;;;;;;2.45;0.40;;;;;;;12.36;100.00;96107.88;6102726;19;20455;-75
2023/10/21 06:06:25;;;;;;;0.40;0.40;;;;;;;12.32;100.00;96107.97;6101514;19;20027;-75
2023/10/21 06:08:25;;;;;;;0.32;0.32;;;;;;;12.46;100.00;96126.16;6103735;19;20011;-76
2023/10/21 06:10:25;;;;;;;0.68;0.43;;;;;;;12.52;100.00;96123.59;6102238;19;20017;-75
2023/10/21 06:12:26;;;;;;;2.28;1.05;;;;;;;12.56;100.00;96132.56;6103734;19;20062;-75
2023/10/21 06:14:26;;;;;;;1.27;0.30;;;;;;;12.55;100.00;96123.47;6102465;19;20131;-75
2023/10/21 06:16:26;;;;;;;1.75;0.52;;;;;;;12.47;100.00;96138.03;6102407;19;20011;-75
2023/10/21 06:18:27;;;;;;;0.82;0.50;;;;;;;12.46;100.00;96148.34;6103687;19;20338;-75
2023/10/21 06:20:27;;;;;;;0.40;0.40;;;;;;;12.36;100.00;96153.03;6102484;19;20018;-75
2023/10/21 06:22:28;;;;;;;0.52;0.40;;;;;;;12.36;100.00;96144.69;6103683;19;20010;-75
2023/10/21 06:24:30;;;;;;;0.40;0.40;;;;;;;12.35;100.00;96159.78;6102275;19;20708;-75
2023/10/21 06:26:33;;;;;;;1.48;0.50;;;;;;;12.43;100.00;96170.66;6102707;19;20030;-75
2023/10/21 06:28:34;;;;;;;0.45;0.40;;;;;;;12.53;100.00;96158.44;6102529;19;20447;-75
2023/10/21 06:30:36;;;;;;;0.73;0.30;;;;;;;12.49;100.00;96182.72;6102916;19;20011;-75
2023/10/21 06:32:36;;;;;;;0.38;0.38;;;;;;;12.51;100.00;96191.38;6101522;19;20007;-75
2023/10/21 06:34:37;;;;;;;1.85;0.45;;;;;;;12.49;100.00;96196.59;6102853;19;20031;-75
2023/10/21 06:36:37;;;;;;;0.40;0.40;;;;;;;12.57;100.00;96184.03;6102623;19;20363;-75
2023/10/21 06:38:38;;;;;;;0.98;0.50;;;;;;;12.57;100.00;96195.91;6102316;19;20374;-75
2023/10/21 06:40:38;;;;;;;0.60;0.60;;;;;;;12.62;100.00;96209.22;6101682;19;20010;-75
2023/10/21 06:42:39;;;;;;;0.40;0.40;;;;;;;12.61;100.00;96218.00;6102116;19;20612;-75
2023/10/21 06:44:39;;;;;;;0.38;0.38;;;;;;;12.61;100.00;96235.41;6103074;19;20003;-75
2023/10/21 06:46:40;;;;;;;0.47;0.47;;;;;;;12.68;100.00;96239.19;6102089;19;20025;-75
2023/10/21 06:48:40;;;;;;;0.40;0.40;;;;;;;12.72;100.00;96246.16;6102805;19;20009;-75
2023/10/21 06:50:41;;;;;;;0.75;0.50;;;;;;;12.77;100.00;96255.94;6109704;19;20098;-75
2023/10/21 06:52:41;;;;;;;0.40;0.40;;;;;;;12.79;100.00;96254.25;6107906;19;20003;-75
2023/10/21 06:54:41;;;;;;;0.40;0.40;;;;;;;12.80;100.00;96258.56;6110461;19;20040;-75
2023/10/21 06:56:42;;;;;;;0.40;0.40;;;;;;;12.81;100.00;96281.56;6109313;19;20042;-75
2023/10/21 06:58:47;;;;;;;0.63;0.40;;;;;;;12.79;100.00;96281.22;6110449;19;20464;-75
2023/10/21 07:00:47;;;;;;;0.57;0.57;;;;;;;12.82;100.00;96283.88;6109288;19;20007;-75
2023/10/21 07:02:48;;;;;;;0.35;0.35;;;;;;;12.96;100.00;96290.19;6108962;19;20006;-75
2023/10/21 07:04:48;;;;;;;0.40;0.40;;;;;;;12.82;100.00;96291.44;6108932;19;20003;-75
2023/10/21 07:06:48;;;;;;;0.45;0.40;;;;;;;12.83;100.00;96299.31;6110412;19;19999;-75
2023/10/21 07:08:49;;;;;;;1.40;0.60;;;;;;;12.79;100.00;96312.53;6108618;19;20006;-75
2023/10/21 07:10:53;;;;;;;0.50;0.50;;;;;;;12.72;100.00;96318.28;6109799;19;20339;-75
2023/10/21 07:12:53;;;;;;;0.40;0.40;;;;;;;12.70;100.00;96329.06;6109594;19;20007;-75
2023/10/21 07:14:54;;;;;;;1.65;0.52;;;;;;;12.76;100.00;96330.06;6110193;19;20078;-75
2023/10/21 07:16:54;;;;;;;0.50;0.50;;;;;;;12.83;100.00;96346.50;6110579;19;20009;-75
2023/10/21 07:18:55;;;;;;;1.13;0.40;;;;;;;12.91;100.00;96363.72;6110527;19;20083;-74
2023/10/21 07:20:58;;;;;;;0.40;0.40;;;;;;;12.89;100.00;96369.69;6109567;19;20007;-75
2023/10/21 07:22:59;;;;;;;1.33;0.93;;;;;;;12.95;100.00;96369.91;6108317;19;20026;-75
2023/10/21 07:25:00;;;;;;;0.60;0.50;;;;;;;12.98;100.00;96376.56;6110036;19;20037;-75
2023/10/21 07:27:01;;;;;;;0.63;0.50;;;;;;;12.94;100.00;96383.00;6110181;19;20554;-75
2023/10/21 07:29:02;;;;;;;0.60;0.50;;;;;;;12.90;100.00;96379.56;6109458;19;20051;-75
2023/10/21 07:31:03;;;;;;;0.50;0.50;;;;;;;12.90;100.00;96392.66;6108791;19;20014;-75
2023/10/21 07:33:03;;;;;;;0.47;0.47;;;;;;;12.97;100.00;96400.00;6106984;19;20081;-75
2023/10/21 07:35:04;;;;;;;0.65;0.50;;;;;;;13.03;100.00;96406.56;6109655;19;20511;-75
2023/10/21 07:37:04;;;;;;;0.50;0.50;;;;;;;13.08;100.00;96409.56;6109019;19;20002;-75
2023/10/21 07:39:05;;;;;;;0.60;0.55;;;;;;;13.31;100.00;96414.00;6108757;19;20040;-75
2023/10/21 07:41:12;;;;;;;0.40;0.40;;;;;;;13.35;100.00;96413.91;6108390;19;20014;-75
2023/10/21 07:43:16;;;;;;;0.40;0.40;;;;;;;13.39;100.00;96428.44;6107429;19;20014;-75
2023/10/21 07:45:17;;;;;;;0.50;0.40;;;;;;;13.42;100.00;96427.56;6107772;19;20288;-75
2023/10/21 07:47:18;;;;;;;0.40;0.40;;;;;;;13.42;100.00;96433.13;6107987;19;20007;-74
2023/10/21 07:49:18;;;;;;;0.50;0.50;;;;;;;13.42;100.00;96447.00;6109002;19;20021;-74
2023/10/21 07:51:18;;;;;;;1.08;0.60;;;;;;;13.40;100.00;96446.66;6107776;19;20009;-75
2023/10/21 07:53:20;;;;;;;0.50;0.50;;;;;;;13.41;100.00;96453.78;6108333;19;20429;-75
2023/10/21 07:55:20;;;;;;;0.30;0.30;;;;;;;13.34;100.00;96448.44;6108639;19;20320;-75
2023/10/21 07:57:21;;;;;;;0.40;0.40;;;;;;;13.25;100.00;96445.56;6109482;19;20434;-74
2023/10/21 07:59:22;;;;;;;0.57;0.57;;;;;;;13.32;100.00;96439.75;6108979;19;20538;-75
2023/10/21 08:01:22;;;;;;;0.65;0.52;;;;;;;13.28;100.00;96450.22;6109314;19;20509;-75
2023/10/21 08:03:22;;;;;;;1.98;1.30;;;;;;;13.21;100.00;96454.00;6107257;19;20018;-75
2023/10/21 08:05:24;;;;;;;0.50;0.50;;;;;;;13.24;100.00;96472.56;6106887;19;20018;-75
2023/10/21 08:07:24;;;;;;;0.47;0.40;;;;;;;13.26;100.00;96470.13;6109717;19;20006;-75
2023/10/21 08:09:25;;;;;;;1.60;0.52;;;;;;;13.27;100.00;96473.66;6108427;19;20008;-75
2023/10/21 08:11:25;;;;;;;0.65;0.65;;;;;;;13.31;100.00;96477.09;6107827;19;20005;-75
2023/10/21 08:13:25;;;;;;;1.02;0.80;;;;;;;13.40;100.00;96488.31;6108713;19;20304;-75
2023/10/21 08:15:27;;;;;;;0.73;0.70;;;;;;;13.56;100.00;96473.53;6108080;19;20010;-75
2023/10/21 08:17:27;;;;;;;0.63;0.60;;;;;;;13.62;100.00;96489.19;6108528;19;20020;-74
2023/10/21 08:19:29;;;;;;;0.82;0.73;;;;;;;13.73;100.00;96495.16;6109808;19;20011;-75
2023/10/21 08:21:29;;;;;;;0.67;0.63;;;;;;;13.76;100.00;96499.84;6107840;19;20112;-75
2023/10/21 08:23:29;;;;;;;0.80;0.80;;;;;;;13.81;100.00;96509.63;6108097;19;20007;-74
2023/10/21 08:25:30;;;;;;;2.33;0.70;;;;;;;13.87;100.00;96501.50;6109755;19;20983;-74
2023/10/21 08:27:30;;;;;;;1.88;1.13;;;;;;;13.96;100.00;96512.72;6108566;19;20018;-74
2023/10/21 08:29:30;;;;;;;0.80;0.80;;;;;;;13.90;100.00;96517.28;6108356;19;20007;-74
2023/10/21 08:31:31;;;;;;;1.20;0.70;;;;;;;13.95;100.00;96519.50;6106433;19;20023;-75
2023/10/21 08:33:31;;;;;;;1.63;0.70;;;;;;;13.85;100.00;96524.19;6106087;19;20006;-75
2023/10/21 08:35:32;;;;;;;0.50;0.50;;;;;;;13.88;100.00;96531.63;6108764;19;20118;-74
2023/10/21 08:37:32;;;;;;;4.68;0.95;;;;;;;13.91;100.00;96532.75;6109159;19;20356;-75
2023/10/21 08:39:36;;;;;;;1.98;0.70;;;;;;;13.93;100.00;96525.50;6108651;19;20048;-74
2023/10/21 08:41:38;;;;;;;0.80;0.70;;;;;;;13.98;100.00;96535.28;6107909;19;20007;-74
2023/10/21 08:43:45;;;;;;;1.10;0.70;;;;;;;14.03;100.00;96527.16;6107531;19;20053;-75
2023/10/21 08:45:46;;;;;;;0.75;0.60;;;;;;;14.06;100.00;96544.94;6107014;19;20414;-74
2023/10/21 08:47:49;;;;;;;0.75;0.60;;;;;;;14.04;100.00;96547.41;6108359;19;20007;-74
2023/10/21 08:49:50;;;;;;;;;;;;;;;14.10;100.00;96556.72;6106298;19;20085;-74
2023/10/21 08:51:52;;;;;;;0.70;0.70;;;;;;;14.06;100.00;96554.06;6106475;19;19918;-75
2023/10/21 08:53:53;;;;;;;;;;;;;;;14.10;100.00;96565.06;6107147;19;20006;-75
2023/10/21 08:55:54;;;;;;;1.10;0.60;;;;;;;14.11;100.00;96566.63;6107802;19;20359;-75
2023/10/21 08:57:54;;;;;;;0.95;0.60;;;;;;;14.17;100.00;96570.41;6106882;19;20442;-75
2023/10/21 08:59:54;;;;;;;0.82;0.50;;;;;;;14.15;100.00;96595.13;6105342;19;20810;-75
2023/10/21 09:01:56;;;;;;;0.52;0.40;;;;;;;14.03;100.00;96593.88;6101398;19;20002;-74
2023/10/21 09:03:56;;;;;;;0.63;0.50;;;;;;;13.97;100.00;96601.22;6104964;19;20003;-75
2023/10/21 09:06:10;;;;;;;1.42;0.60;;;;;;;13.92;100.00;96609.38;6107633;19;20333;-75
2023/10/21 09:08:11;;;;;;;0.47;0.40;;;;;;;13.82;100.00;96621.56;6107178;19;20062;-74
2023/10/21 09:10:12;;;;;;;0.57;0.50;;;;;;;13.82;100.00;96627.94;6107637;19;20040;-74
2023/10/21 09:12:16;;;;;;;0.70;0.52;;;;;;;13.82;100.00;96625.16;6107115;19;20015;-75
2023/10/21 09:14:16;;;;;;;1.23;0.63;;;;;;;13.89;100.00;96633.25;6105700;19;20010;-75
2023/10/21 09:16:20;;;;;;;0.65;0.50;;;;;;;13.88;100.00;96631.69;6111706;19;20018;-74
2023/10/21 09:18:21;;;;;;;0.50;0.50;;;;;;;13.92;100.00;96632.38;6113030;19;20014;-74
2023/10/21 09:20:22;;;;;;;0.63;0.40;;;;;;;13.97;100.00;96628.25;6112649;19;20493;-74
2023/10/21 09:22:23;;;;;;;0.50;0.50;;;;;;;14.10;100.00;96634.59;6112680;19;20321;-74
2023/10/21 09:24:23;;;;;;;0.95;0.50;;;;;;;14.16;100.00;96632.03;6111765;19;20010;-75